Time;durP1;ratioP1;P1;durP2;ratioP2;P2;SDS_P1;SDS_P2;PMS_P1;PMS_P2;Temp;Humidity;BMP_temperature;BMP_pressure;BME280_temperature;BME280_humidity;BME280_pressure;Samples;Min_cycle;Max_cycle;Signal;HPM_P1;HPM_P2
2022/03/07 00:01:22;;;;;;;53.90;39.28;;;27.10;99.90;;;;;;5054765;28;20039;-62
2022/03/07 00:03:48;;;;;;;58.28;39.83;;;27.10;99.90;;;;;;5053305;28;20071;-63
2022/03/07 00:06:15;;;;;;;65.95;52.03;;;27.20;99.90;;;;;;5065002;28;20025;-60
2022/03/07 00:08:41;;;;;;;81.38;57.33;;;27.20;99.90;;;;;;5070604;28;20540;-63
2022/03/07 00:11:08;;;;;;;76.13;47.75;;;27.20;99.90;;;;;;5073127;28;20097;-61
2022/03/07 00:13:36;;;;;;;85.18;63.53;;;27.20;99.90;;;;;;5072919;28;20056;-63
2022/03/07 00:16:04;;;;;;;55.25;40.13;;;27.20;99.90;;;;;;5065500;28;20047;-62
2022/03/07 00:18:31;;;;;;;59.63;43.55;;;27.30;99.90;;;;;;5072205;28;20032;-61
2022/03/07 00:20:58;;;;;;;56.13;40.92;;;27.30;99.90;;;;;;5074582;28;20028;-62
2022/03/07 00:23:24;;;;;;;58.60;38.72;;;27.30;99.90;;;;;;5076857;28;20388;-63
2022/03/07 00:25:51;;;;;;;54.95;36.10;;;27.20;99.90;;;;;;5076723;28;20024;-63
2022/03/07 00:28:18;;;;;;;55.53;36.08;;;27.30;99.90;;;;;;5076670;28;20028;-63
2022/03/07 00:30:45;;;;;;;46.20;32.83;;;27.40;99.90;;;;;;5071022;28;20481;-63
2022/03/07 00:33:14;;;;;;;42.88;29.65;;;27.40;99.90;;;;;;5056607;28;20112;-62
2022/03/07 00:35:41;;;;;;;45.58;29.33;;;27.40;99.90;;;;;;5056694;28;20036;-63
2022/03/07 00:38:07;;;;;;;41.33;29.65;;;27.50;99.90;;;;;;5056472;28;20083;-63
2022/03/07 00:40:34;;;;;;;37.55;28.30;;;27.50;99.90;;;;;;5056379;28;20021;-63
2022/03/07 00:43:01;;;;;;;44.60;28.95;;;27.50;99.90;;;;;;5057206;28;20071;-62
2022/03/07 00:45:28;;;;;;;40.72;28.98;;;27.60;99.90;;;;;;5079012;28;20081;-63
2022/03/07 00:47:54;;;;;;;42.47;30.55;;;27.60;99.90;;;;;;5076436;28;20376;-66
2022/03/07 00:50:21;;;;;;;46.03;31.63;;;27.60;99.90;;;;;;5069812;28;20051;-63
2022/03/07 00:52:48;;;;;;;45.67;30.95;;;27.70;99.90;;;;;;5065123;28;20102;-64
2022/03/07 00:55:14;;;;;;;47.00;32.15;;;27.70;99.90;;;;;;5076253;28;20028;-64
2022/03/07 00:57:41;;;;;;;51.22;35.05;;;27.70;99.90;;;;;;5081207;28;20043;-63
2022/03/07 01:00:08;;;;;;;58.08;37.70;;;27.80;99.90;;;;;;5074741;28;20032;-64
2022/03/07 01:02:35;;;;;;;53.05;38.75;;;27.80;99.90;;;;;;5074553;28;20027;-63
2022/03/07 01:05:02;;;;;;;56.00;37.85;;;27.80;99.90;;;;;;5075801;28;20025;-61
2022/03/07 01:07:29;;;;;;;58.15;35.55;;;27.80;99.90;;;;;;5075906;28;20147;-60
2022/03/07 01:09:55;;;;;;;57.60;37.38;;;27.80;99.90;;;;;;5076011;28;20025;-63
2022/03/07 01:12:22;;;;;;;53.88;38.67;;;27.90;99.90;;;;;;5074569;28;20114;-63
2022/03/07 01:14:49;;;;;;;58.08;43.15;;;27.90;99.90;;;;;;5075876;28;20465;-63
2022/03/07 01:17:16;;;;;;;61.15;40.65;;;27.90;99.90;;;;;;5075818;28;20025;-63
2022/03/07 01:19:42;;;;;;;63.72;47.50;;;27.90;99.90;;;;;;5075962;28;20494;-64
2022/03/07 01:22:09;;;;;;;65.15;49.08;;;28.00;99.90;;;;;;5075198;28;20041;-63
2022/03/07 01:24:37;;;;;;;67.80;49.90;;;28.00;99.90;;;;;;5086442;28;20032;-64
2022/03/07 01:27:04;;;;;;;67.38;53.17;;;28.00;99.90;;;;;;5075890;28;20036;-63
2022/03/07 01:29:31;;;;;;;70.30;53.13;;;28.00;99.90;;;;;;5075591;28;20104;-62
2022/03/07 01:31:58;;;;;;;70.65;56.22;;;28.10;99.90;;;;;;5075554;28;20419;-61
2022/03/07 01:34:25;;;;;;;80.07;59.55;;;28.10;99.90;;;;;;5075607;28;20028;-64
2022/03/07 01:36:51;;;;;;;81.15;63.95;;;28.10;99.90;;;;;;5061598;28;20060;-64
2022/03/07 01:39:19;;;;;;;99.15;76.00;;;28.10;99.90;;;;;;5055457;28;20032;-63
2022/03/07 01:41:45;;;;;;;102.68;75.07;;;28.10;99.90;;;;;;5055433;28;20029;-63
2022/03/07 01:44:21;;;;;;;73.80;57.75;;;28.10;99.90;;;;;;5057652;28;20025;-63
2022/03/07 01:46:48;;;;;;;61.80;50.13;;;28.20;99.90;;;;;;5075290;28;20020;-63
2022/03/07 01:49:15;;;;;;;62.55;48.72;;;28.20;99.90;;;;;;5075383;28;20073;-62
2022/03/07 01:51:43;;;;;;;60.10;45.35;;;28.30;99.90;;;;;;5075140;28;20106;-64
2022/03/07 01:54:12;;;;;;;52.75;37.72;;;28.30;99.90;;;;;;5077535;28;20158;-64
2022/03/07 01:56:39;;;;;;;48.60;36.95;;;28.40;99.90;;;;;;5068030;28;20381;-64
2022/03/07 01:59:09;;;;;;;54.55;35.08;;;28.50;99.90;;;;;;5075411;28;20032;-63
2022/03/07 02:01:35;;;;;;;52.10;29.75;;;28.60;99.90;;;;;;5069949;28;20033;-63
2022/03/07 02:04:02;;;;;;;43.65;29.52;;;28.70;99.90;;;;;;5066496;28;20095;-65
2022/03/07 02:06:29;;;;;;;51.22;37.08;;;28.70;99.90;;;;;;5062908;28;20039;-67
2022/03/07 02:08:57;;;;;;;65.82;45.35;;;28.80;99.90;;;;;;5064695;28;20052;-65
2022/03/07 02:11:25;;;;;;;72.47;50.78;;;28.90;99.90;;;;;;5063168;28;20032;-64
2022/03/07 02:13:53;;;;;;;75.30;50.28;;;29.00;99.90;;;;;;5063608;28;20044;-64
2022/03/07 02:16:20;;;;;;;73.85;47.08;;;29.00;99.90;;;;;;5064915;28;20036;-64
2022/03/07 02:18:48;;;;;;;50.70;39.60;;;29.10;99.90;;;;;;5069285;28;20037;-64
2022/03/07 02:21:17;;;;;;;50.55;36.88;;;29.10;99.90;;;;;;5060448;28;20122;-64
2022/03/07 02:23:45;;;;;;;46.28;33.50;;;29.10;99.90;;;;;;5061272;28;20167;-64
2022/03/07 02:26:15;;;;;;;47.38;31.27;;;29.00;99.90;;;;;;5067223;28;20016;-64
2022/03/07 02:28:44;;;;;;;42.00;34.30;;;29.00;99.90;;;;;;5071974;28;20214;-64
2022/03/07 02:31:15;;;;;;;110.45;82.85;;;29.10;99.90;;;;;;5054640;28;20044;-65
2022/03/07 02:33:42;;;;;;;80.65;58.90;;;29.20;99.90;;;;;;5060004;28;20031;-64
2022/03/07 02:36:09;;;;;;;71.45;50.40;;;29.30;99.90;;;;;;5061637;28;20043;-64
2022/03/07 02:38:35;;;;;;;128.43;96.63;;;29.30;99.90;;;;;;5058475;28;20084;-63
2022/03/07 02:41:03;;;;;;;54.25;35.58;;;29.40;99.90;;;;;;5067241;28;20017;-63
2022/03/07 02:43:29;;;;;;;84.47;63.95;;;29.50;99.90;;;;;;5085974;28;20025;-64
2022/03/07 02:45:58;;;;;;;47.97;32.97;;;29.50;99.90;;;;;;5065742;28;20537;-63
2022/03/07 02:48:28;;;;;;;88.15;63.17;;;29.50;99.90;;;;;;5065299;28;20082;-63
2022/03/07 02:50:55;;;;;;;64.57;50.10;;;29.50;99.90;;;;;;5066496;28;20032;-64
2022/03/07 02:53:22;;;;;;;309.15;270.30;;;29.50;99.90;;;;;;5067339;28;20029;-66
2022/03/07 02:55:49;;;;;;;92.45;80.57;;;29.60;99.90;;;;;;5061424;28;20040;-65
2022/03/07 02:58:15;;;;;;;23.90;17.85;;;29.60;99.90;;;;;;5068151;28;20021;-63
2022/03/07 03:00:42;;;;;;;20.95;13.88;;;29.60;99.90;;;;;;5067394;28;20021;-63
2022/03/07 03:03:09;;;;;;;21.33;13.50;;;29.60;99.90;;;;;;5062545;28;20044;-63
2022/03/07 03:05:35;;;;;;;40.88;29.05;;;29.50;99.90;;;;;;5065231;28;20079;-63
2022/03/07 03:08:02;;;;;;;26.17;19.90;;;29.50;99.90;;;;;;5066192;28;20472;-65
2022/03/07 03:10:29;;;;;;;27.20;16.05;;;29.50;99.90;;;;;;5065619;28;20032;-65
2022/03/07 03:12:56;;;;;;;17.75;11.60;;;29.60;99.90;;;;;;5076854;28;20044;-64
2022/03/07 03:15:23;;;;;;;16.13;11.73;;;29.60;99.90;;;;;;5059361;28;20025;-64
2022/03/07 03:17:50;;;;;;;17.55;11.95;;;29.70;99.90;;;;;;5061779;28;20029;-65
2022/03/07 03:20:17;;;;;;;30.65;23.17;;;29.70;99.90;;;;;;5062846;28;20485;-65
2022/03/07 03:22:45;;;;;;;30.27;23.20;;;29.70;99.90;;;;;;5069851;28;20441;-62
2022/03/07 03:25:15;;;;;;;21.02;13.32;;;29.80;99.90;;;;;;5061576;28;20044;-63
2022/03/07 03:27:42;;;;;;;35.35;25.50;;;29.90;99.90;;;;;;5062490;28;20087;-64
2022/03/07 03:30:12;;;;;;;22.80;15.70;;;29.90;99.90;;;;;;5061425;28;20555;-65
2022/03/07 03:32:38;;;;;;;29.25;22.02;;;29.90;99.90;;;;;;5064329;28;20048;-66
2022/03/07 03:35:06;;;;;;;24.92;17.20;;;29.90;99.90;;;;;;5066700;28;20020;-65
2022/03/07 03:37:33;;;;;;;41.00;30.83;;;29.90;99.90;;;;;;5069749;28;20028;-64
2022/03/07 03:40:00;;;;;;;355.60;290.95;;;29.90;99.90;;;;;;5063678;28;20071;-65
2022/03/07 03:42:26;;;;;;;48.38;37.35;;;29.90;99.90;;;;;;5078296;28;20231;-65
2022/03/07 03:44:53;;;;;;;26.50;17.55;;;30.00;99.90;;;;;;5062313;28;20056;-65
2022/03/07 03:47:20;;;;;;;21.73;14.55;;;29.90;99.90;;;;;;5066684;28;20081;-64
2022/03/07 03:49:47;;;;;;;30.92;15.68;;;30.00;99.90;;;;;;5082942;28;20051;-64
2022/03/07 03:52:13;;;;;;;28.67;14.98;;;30.10;99.90;;;;;;5073996;28;20064;-63
2022/03/07 03:54:40;;;;;;;28.27;18.65;;;30.20;99.90;;;;;;5067346;28;20037;-65
2022/03/07 03:57:07;;;;;;;28.65;19.70;;;30.30;99.90;;;;;;5068011;28;20048;-65
2022/03/07 03:59:34;;;;;;;25.63;14.52;;;30.40;99.90;;;;;;5058075;28;20533;-63
2022/03/07 04:02:01;;;;;;;34.75;22.92;;;30.40;99.90;;;;;;5090669;28;20032;-63
2022/03/07 04:04:28;;;;;;;41.83;25.13;;;30.40;99.90;;;;;;5077725;28;20040;-64
2022/03/07 04:06:54;;;;;;;34.08;24.20;;;30.40;99.90;;;;;;5077813;28;20047;-63
2022/03/07 04:09:22;;;;;;;21.95;13.25;;;30.60;99.90;;;;;;5071778;28;20032;-62
2022/03/07 04:11:49;;;;;;;53.15;33.47;;;30.60;99.90;;;;;;5057138;28;20035;-65
2022/03/07 04:14:16;;;;;;;27.15;19.33;;;30.70;99.90;;;;;;5059364;28;20033;-62
2022/03/07 04:16:43;;;;;;;41.05;23.60;;;30.70;99.90;;;;;;5067515;28;20093;-61
2022/03/07 04:19:11;;;;;;;50.40;34.30;;;30.70;99.90;;;;;;5075721;28;20089;-62
2022/03/07 04:21:40;;;;;;;101.40;81.75;;;30.90;99.90;;;;;;5067683;28;20024;-62
2022/03/07 04:24:08;;;;;;;48.17;33.60;;;30.90;99.90;;;;;;5065403;28;20032;-62
2022/03/07 04:26:35;;;;;;;23.25;16.65;;;31.10;99.90;;;;;;5065409;28;20114;-62
2022/03/07 04:29:05;;;;;;;24.10;14.68;;;31.20;99.90;;;;;;5063689;28;20029;-62
2022/03/07 04:31:32;;;;;;;38.08;21.92;;;31.00;99.90;;;;;;5070164;28;20150;-62
2022/03/07 04:33:59;;;;;;;30.50;15.60;;;31.00;99.90;;;;;;5072333;28;20127;-63
2022/03/07 04:36:26;;;;;;;17.23;11.85;;;31.00;99.90;;;;;;5060415;28;20385;-63
2022/03/07 04:38:53;;;;;;;22.45;13.10;;;31.10;99.90;;;;;;5067300;28;20043;-63
2022/03/07 04:41:19;;;;;;;15.85;10.00;;;31.00;99.90;;;;;;5072793;28;20112;-63
2022/03/07 04:43:46;;;;;;;26.08;12.18;;;31.10;99.90;;;;;;5074426;28;20035;-62
2022/03/07 04:46:13;;;;;;;22.80;11.93;;;31.10;99.90;;;;;;5060857;28;20033;-62
2022/03/07 04:48:39;;;;;;;18.13;11.32;;;31.20;99.90;;;;;;5067081;28;20108;-62
2022/03/07 04:51:06;;;;;;;18.58;11.45;;;31.20;99.90;;;;;;5056716;28;20029;-62
2022/03/07 04:53:33;;;;;;;21.48;15.48;;;31.30;99.90;;;;;;5067429;28;20058;-62
2022/03/07 04:56:00;;;;;;;28.27;17.10;;;31.40;99.90;;;;;;5067762;28;20382;-63
2022/03/07 04:58:26;;;;;;;19.13;12.60;;;31.50;99.90;;;;;;5056468;28;20036;-62
2022/03/07 05:00:54;;;;;;;15.75;11.90;;;31.60;99.90;;;;;;5068221;28;20016;-62
2022/03/07 05:03:21;;;;;;;23.17;16.15;;;31.70;99.90;;;;;;5066093;28;20033;-61
2022/03/07 05:05:49;;;;;;;13.68;9.85;;;31.80;99.90;;;;;;5059937;28;20074;-63
2022/03/07 05:08:16;;;;;;;31.83;22.23;;;31.70;98.80;;;;;;5065274;28;20033;-62
2022/03/07 05:10:44;;;;;;;19.92;14.18;;;31.70;99.90;;;;;;5075255;28;20526;-62
2022/03/07 05:13:11;;;;;;;23.98;13.02;;;31.70;99.90;;;;;;5073582;28;20063;-61
2022/03/07 05:15:38;;;;;;;15.82;11.30;;;31.70;99.90;;;;;;5074714;28;20028;-61
2022/03/07 05:18:05;;;;;;;20.83;12.82;;;31.60;99.90;;;;;;5065935;28;20037;-60
2022/03/07 05:20:33;;;;;;;17.85;11.85;;;31.60;99.90;;;;;;5056965;28;20091;-61
2022/03/07 05:23:00;;;;;;;17.23;10.65;;;31.60;99.90;;;;;;5056792;28;20569;-62
2022/03/07 05:25:26;;;;;;;10.65;9.07;;;31.70;99.70;;;;;;5063314;28;20036;-61
2022/03/07 05:27:53;;;;;;;17.85;10.35;;;31.70;99.30;;;;;;5063355;28;20445;-61
2022/03/07 05:30:22;;;;;;;23.85;15.63;;;31.80;99.80;;;;;;5074024;28;20117;-62
2022/03/07 05:32:51;;;;;;;19.65;14.77;;;32.00;99.90;;;;;;5080242;28;20035;-62
2022/03/07 05:35:19;;;;;;;17.98;14.55;;;32.10;99.30;;;;;;5075356;28;20029;-61
2022/03/07 05:37:46;;;;;;;16.70;12.90;;;32.20;98.40;;;;;;5073868;28;20024;-62
2022/03/07 05:40:15;;;;;;;11.45;9.57;;;32.20;98.10;;;;;;5082356;28;20040;-62
2022/03/07 05:42:42;;;;;;;14.63;10.35;;;32.20;98.50;;;;;;5062332;28;20036;-62
2022/03/07 05:45:11;;;;;;;23.15;9.32;;;32.20;97.00;;;;;;5064818;28;20381;-63
2022/03/07 05:47:38;;;;;;;31.42;21.85;;;32.20;97.40;;;;;;5075471;28;20043;-63
2022/03/07 05:50:06;;;;;;;14.57;11.60;;;32.30;97.50;;;;;;5060561;28;20083;-62
2022/03/07 05:52:32;;;;;;;12.95;8.93;;;32.30;96.20;;;;;;5061712;28;20047;-62
2022/03/07 05:54:59;;;;;;;20.13;13.93;;;32.30;97.10;;;;;;5062244;28;20043;-61
2022/03/07 05:57:26;;;;;;;18.33;12.25;;;32.50;97.70;;;;;;5075015;28;20115;-61
2022/03/07 05:59:55;;;;;;;38.83;30.58;;;32.60;98.10;;;;;;5075865;28;20032;-62
2022/03/07 06:02:22;;;;;;;18.50;10.18;;;32.70;97.00;;;;;;5074366;28;20511;-62
2022/03/07 06:04:49;;;;;;;17.52;9.90;;;32.70;95.40;;;;;;5068412;28;20423;-62
2022/03/07 06:07:15;;;;;;;14.88;9.60;;;32.70;95.50;;;;;;5074854;28;20016;-63
2022/03/07 06:09:42;;;;;;;23.50;12.30;;;32.80;95.40;;;;;;5074955;28;20028;-62
2022/03/07 06:12:09;;;;;;;17.05;10.73;;;32.70;94.90;;;;;;5074653;28;20056;-62
2022/03/07 06:14:36;;;;;;;13.57;8.80;;;32.70;95.00;;;;;;5071678;28;20033;-62
2022/03/07 06:17:03;;;;;;;11.18;8.68;;;32.70;94.30;;;;;;5067643;28;20039;-61
2022/03/07 06:19:30;;;;;;;14.13;8.45;;;32.60;94.90;;;;;;5068657;28;20036;-61
2022/03/07 06:21:56;;;;;;;12.85;8.57;;;32.60;94.60;;;;;;5068769;28;20040;-62
2022/03/07 06:24:23;;;;;;;11.35;8.90;;;32.50;93.30;;;;;;5064606;28;20029;-62
2022/03/07 06:26:50;;;;;;;16.20;9.88;;;32.40;93.60;;;;;;5068338;28;20029;-63
2022/03/07 06:29:16;;;;;;;14.10;8.40;;;32.40;95.10;;;;;;5070846;28;20370;-61
2022/03/07 06:31:43;;;;;;;14.38;9.18;;;32.50;94.60;;;;;;5063022;28;20040;-62
2022/03/07 06:34:10;;;;;;;18.55;9.80;;;32.50;94.50;;;;;;5065459;28;20151;-62
2022/03/07 06:36:36;;;;;;;13.05;9.27;;;32.60;94.00;;;;;;5063011;28;20025;-63
2022/03/07 06:39:03;;;;;;;11.82;8.70;;;32.60;94.10;;;;;;5063601;28;20029;-61
2022/03/07 06:41:30;;;;;;;10.82;8.20;;;32.70;94.80;;;;;;5065061;28;20107;-63
2022/03/07 06:43:56;;;;;;;11.30;8.93;;;32.70;93.90;;;;;;5061939;28;20025;-64
2022/03/07 06:46:23;;;;;;;29.02;13.00;;;32.70;93.60;;;;;;5061014;28;20039;-63
2022/03/07 06:48:50;;;;;;;18.73;10.57;;;32.70;94.00;;;;;;5061777;28;21025;-63
2022/03/07 06:51:18;;;;;;;17.95;11.13;;;32.90;93.80;;;;;;5061177;28;20076;-64
2022/03/07 06:53:45;;;;;;;17.23;11.25;;;32.80;92.60;;;;;;5056999;28;20079;-62
2022/03/07 06:56:12;;;;;;;21.77;10.52;;;32.80;93.30;;;;;;5057617;28;20028;-63
2022/03/07 06:58:38;;;;;;;15.98;9.77;;;32.80;93.20;;;;;;5054503;28;20029;-62
2022/03/07 07:01:05;;;;;;;15.40;11.50;;;32.90;93.00;;;;;;5054632;28;20100;-62
2022/03/07 07:03:32;;;;;;;15.07;10.27;;;32.90;92.00;;;;;;5054030;28;20082;-62
2022/03/07 07:05:58;;;;;;;16.13;10.20;;;32.90;92.50;;;;;;5061346;28;20068;-62
2022/03/07 07:08:25;;;;;;;19.27;11.35;;;33.00;93.40;;;;;;5080547;28;20039;-63
2022/03/07 07:10:52;;;;;;;23.38;11.48;;;33.10;93.10;;;;;;5070556;28;20381;-63
2022/03/07 07:13:19;;;;;;;15.07;10.32;;;33.10;92.30;;;;;;5062663;28;20064;-63
2022/03/07 07:15:54;;;;;;;17.92;11.32;;;33.10;91.50;;;;;;5072948;28;20097;-62
2022/03/07 07:18:21;;;;;;;19.30;12.55;;;33.10;91.80;;;;;;5076934;28;20116;-63
2022/03/07 07:20:50;;;;;;;140.88;95.88;;;33.10;91.60;;;;;;5069843;28;20471;-63
2022/03/07 07:23:18;;;;;;;120.55;83.00;;;33.10;92.40;;;;;;5064651;28;20052;-63
2022/03/07 07:25:46;;;;;;;36.75;24.25;;;33.10;92.10;;;;;;5055770;28;20017;-62
2022/03/07 07:28:13;;;;;;;18.35;11.55;;;33.10;93.10;;;;;;5055524;28;20033;-63
2022/03/07 07:30:41;;;;;;;15.32;11.10;;;33.10;92.00;;;;;;5082533;28;20064;-63
2022/03/07 07:33:07;;;;;;;11.15;9.13;;;33.10;92.10;;;;;;5067196;28;20364;-62
2022/03/07 07:35:36;;;;;;;14.82;10.15;;;33.10;89.60;;;;;;5059773;28;20090;-63
2022/03/07 07:38:04;;;;;;;19.75;11.20;;;33.10;91.40;;;;;;5060965;28;20031;-61
2022/03/07 07:40:31;;;;;;;17.08;11.30;;;33.20;91.00;;;;;;5061665;28;20033;-60
2022/03/07 07:42:58;;;;;;;31.48;24.95;;;33.10;91.00;;;;;;5059272;28;20422;-61
2022/03/07 07:45:25;;;;;;;40.67;29.42;;;33.10;90.80;;;;;;5065189;28;20504;-64
2022/03/07 07:47:52;;;;;;;195.30;133.95;;;33.10;90.50;;;;;;5067762;28;20436;-63
2022/03/07 07:50:20;;;;;;;44.22;29.67;;;33.20;91.20;;;;;;5069076;28;20221;-64
2022/03/07 07:52:47;;;;;;;35.65;18.70;;;33.20;90.30;;;;;;5064014;28;20040;-62
2022/03/07 07:55:14;;;;;;;13.77;11.52;;;33.20;90.40;;;;;;5061257;28;20025;-62
2022/03/07 07:57:40;;;;;;;18.13;11.13;;;33.20;90.50;;;;;;5062993;28;20033;-62
2022/03/07 08:00:09;;;;;;;31.95;19.95;;;33.10;91.20;;;;;;5060176;28;20071;-61
2022/03/07 08:02:36;;;;;;;13.57;9.70;;;33.00;91.00;;;;;;5064361;28;20177;-61
2022/03/07 08:05:04;;;;;;;16.70;9.52;;;33.00;90.60;;;;;;5060011;28;20052;-66
2022/03/07 08:07:31;;;;;;;19.42;9.30;;;33.00;90.80;;;;;;5059581;28;20047;-63
2022/03/07 08:09:58;;;;;;;15.30;8.10;;;32.90;90.40;;;;;;5061409;28;20039;-64
2022/03/07 08:12:25;;;;;;;13.18;9.07;;;33.00;88.90;;;;;;5061965;28;20071;-64
2022/03/07 08:14:52;;;;;;;18.20;13.80;;;33.00;89.40;;;;;;5058787;28;20029;-63
2022/03/07 08:17:18;;;;;;;15.50;9.50;;;32.90;89.50;;;;;;5059278;28;20064;-64
2022/03/07 08:19:45;;;;;;;11.88;8.05;;;32.90;89.90;;;;;;5065173;28;20029;-64
2022/03/07 08:22:12;;;;;;;29.48;22.08;;;32.90;90.60;;;;;;5061646;28;20079;-61
2022/03/07 08:24:38;;;;;;;68.10;48.35;;;33.00;90.80;;;;;;5064566;28;20025;-64
2022/03/07 08:27:05;;;;;;;37.08;21.70;;;33.00;90.00;;;;;;5062713;28;20102;-62
2022/03/07 08:29:32;;;;;;;27.35;20.73;;;33.00;90.30;;;;;;5060125;28;20544;-60
2022/03/07 08:31:58;;;;;;;18.77;13.68;;;33.00;90.30;;;;;;5063185;28;20099;-63
2022/03/07 08:34:25;;;;;;;29.17;16.98;;;33.10;90.20;;;;;;5067001;28;20489;-61
2022/03/07 08:36:52;;;;;;;16.50;10.05;;;33.10;89.60;;;;;;5070232;28;20025;-62
2022/03/07 08:39:18;;;;;;;36.80;26.70;;;33.10;89.90;;;;;;5062249;28;20040;-63
2022/03/07 08:41:45;;;;;;;14.65;9.50;;;33.10;90.00;;;;;;5063165;28;20060;-63
2022/03/07 08:44:12;;;;;;;21.55;11.30;;;33.10;88.50;;;;;;5064958;28;20028;-61
2022/03/07 08:46:39;;;;;;;142.93;95.78;;;33.00;89.90;;;;;;5067995;28;20130;-64
2022/03/07 08:49:06;;;;;;;11.80;8.40;;;33.10;90.10;;;;;;5062187;28;20028;-64
2022/03/07 08:51:33;;;;;;;17.10;8.73;;;33.10;86.70;;;;;;5075920;28;20024;-63
2022/03/07 08:54:00;;;;;;;13.65;9.85;;;33.00;88.40;;;;;;5088169;28;20077;-64
2022/03/07 08:56:26;;;;;;;26.48;10.02;;;33.00;90.10;;;;;;5096789;28;20541;-61
2022/03/07 08:58:53;;;;;;;15.93;9.85;;;33.00;90.40;;;;;;5056601;28;20471;-62
2022/03/07 09:01:20;;;;;;;14.10;9.45;;;33.00;90.40;;;;;;5056233;28;20021;-61
2022/03/07 09:03:47;;;;;;;40.50;22.15;;;33.00;90.60;;;;;;5076015;28;20021;-61
2022/03/07 09:06:14;;;;;;;16.40;11.07;;;33.00;90.60;;;;;;5069263;28;20024;-61
2022/03/07 09:08:40;;;;;;;102.55;44.05;;;33.00;90.50;;;;;;5074232;28;20327;-60
2022/03/07 09:11:07;;;;;;;79.53;38.60;;;32.90;90.30;;;;;;5061719;28;20052;-61
2022/03/07 09:13:34;;;;;;;77.05;35.00;;;33.00;90.70;;;;;;5055141;28;20060;-61
2022/03/07 09:16:00;;;;;;;50.45;24.33;;;33.00;90.50;;;;;;5059886;28;20041;-61
2022/03/07 09:18:27;;;;;;;74.88;31.38;;;32.90;90.70;;;;;;5055870;28;20036;-61
2022/03/07 09:20:54;;;;;;;97.18;46.55;;;32.80;91.20;;;;;;5059131;28;20029;-60
2022/03/07 09:23:21;;;;;;;143.77;68.82;;;32.80;91.30;;;;;;5080858;28;20380;-61
2022/03/07 09:25:48;;;;;;;110.28;49.38;;;32.80;91.50;;;;;;5090336;28;20423;-61
2022/03/07 09:28:15;;;;;;;72.43;40.40;;;32.70;91.60;;;;;;5072580;28;20355;-62
2022/03/07 09:30:42;;;;;;;25.63;13.88;;;32.50;92.80;;;;;;5063951;28;20028;-61
2022/03/07 09:33:08;;;;;;;20.60;13.48;;;32.20;93.70;;;;;;5063709;28;20497;-62
2022/03/07 09:35:35;;;;;;;42.85;22.42;;;31.90;96.20;;;;;;5066232;28;20029;-62
2022/03/07 09:38:02;;;;;;;54.95;25.83;;;31.80;98.40;;;;;;5064234;28;20028;-63
2022/03/07 09:40:28;;;;;;;44.00;24.25;;;31.60;99.20;;;;;;5065469;28;20455;-63
2022/03/07 09:42:55;;;;;;;35.60;19.55;;;31.50;99.90;;;;;;5064254;28;20017;-61
2022/03/07 09:45:22;;;;;;;35.88;19.75;;;31.30;99.90;;;;;;5063849;28;20025;-61
2022/03/07 09:47:50;;;;;;;25.95;15.40;;;31.10;99.90;;;;;;5065213;28;20028;-61
2022/03/07 09:50:17;;;;;;;22.52;14.48;;;31.10;99.90;;;;;;5060191;28;20090;-61
2022/03/07 09:52:46;;;;;;;26.45;16.08;;;31.10;99.90;;;;;;5066485;28;20114;-60
2022/03/07 09:55:14;;;;;;;24.10;13.32;;;31.00;99.90;;;;;;5071967;28;20489;-61
2022/03/07 09:57:42;;;;;;;17.90;13.13;;;31.00;99.90;;;;;;5064230;28;20099;-61
2022/03/07 10:00:10;;;;;;;26.55;18.75;;;31.10;99.90;;;;;;5063343;28;20017;-62
2022/03/07 10:02:37;;;;;;;41.05;28.08;;;31.10;99.90;;;;;;5064226;28;20021;-62
2022/03/07 10:05:04;;;;;;;41.33;28.58;;;31.10;99.90;;;;;;5061050;28;20362;-62
2022/03/07 10:07:41;;;;;;;38.47;25.67;;;31.10;99.90;;;;;;5062051;28;20133;-61
2022/03/07 10:10:09;;;;;;;46.03;29.95;;;30.90;99.90;;;;;;5064505;28;20029;-62
2022/03/07 10:12:45;;;;;;;27.85;17.90;;;30.80;99.90;;;;;;5064071;28;20071;-62
2022/03/07 10:15:14;;;;;;;25.92;18.80;;;30.80;99.90;;;;;;5062435;28;20017;-62
2022/03/07 10:17:48;;;;;;;36.95;26.60;;;30.70;99.90;;;;;;5062618;28;20424;-62
2022/03/07 10:20:18;;;;;;;36.95;24.50;;;30.70;99.90;;;;;;5063363;28;20037;-62
2022/03/07 10:22:49;;;;;;;47.20;31.13;;;30.70;99.90;;;;;;5066332;28;20029;-62
2022/03/07 10:25:22;;;;;;;51.65;33.78;;;30.70;99.90;;;;;;5062483;28;20020;-62
2022/03/07 10:27:50;;;;;;;36.80;24.38;;;30.60;99.90;;;;;;5063440;28;20037;-62
2022/03/07 10:30:20;;;;;;;36.15;22.20;;;30.60;99.90;;;;;;5063015;28;20032;-62
2022/03/07 10:33:05;;;;;;;50.58;32.55;;;30.80;99.90;;;;;;5064675;28;20604;-63
2022/03/07 10:35:36;;;;;;;71.88;46.60;;;30.80;99.90;;;;;;5062722;28;20033;-63
2022/03/07 10:38:07;;;;;;;73.95;47.30;;;30.80;99.90;;;;;;5063852;28;20072;-62
2022/03/07 10:40:36;;;;;;;65.90;42.00;;;30.60;99.70;;;;;;5061366;28;20025;-62
2022/03/07 10:43:04;;;;;;;52.20;33.42;;;30.50;98.70;;;;;;5064576;28;20562;-61
2022/03/07 10:45:32;;;;;;;55.25;33.17;;;30.30;99.80;;;;;;5063914;28;20025;-61
2022/03/07 10:48:02;;;;;;;48.53;32.05;;;30.20;99.50;;;;;;5066896;28;20060;-62
2022/03/07 10:50:30;;;;;;;43.85;27.52;;;29.90;99.90;;;;;;5064407;28;20036;-62
2022/03/07 10:53:06;;;;;;;30.85;20.65;;;29.70;99.90;;;;;;5074562;28;20036;-62
2022/03/07 10:55:35;;;;;;;30.80;23.38;;;29.70;99.90;;;;;;5074512;28;20032;-62
2022/03/07 10:58:12;;;;;;;29.33;20.15;;;29.70;99.90;;;;;;5073008;28;20036;-62
2022/03/07 11:00:49;;;;;;;21.77;14.88;;;29.60;99.90;;;;;;5060361;28;20035;-63
2022/03/07 11:03:19;;;;;;;23.27;15.93;;;29.60;99.90;;;;;;5072341;28;20028;-62
2022/03/07 11:05:47;;;;;;;29.48;17.10;;;29.60;99.90;;;;;;5073751;28;20052;-62
2022/03/07 11:08:15;;;;;;;37.70;20.90;;;29.40;99.90;;;;;;5074112;28;20354;-62
2022/03/07 11:10:46;;;;;;;39.90;21.80;;;29.30;99.90;;;;;;5066523;28;20039;-62
2022/03/07 11:13:17;;;;;;;32.25;17.42;;;29.20;99.90;;;;;;5073453;28;20053;-62
2022/03/07 11:15:47;;;;;;;23.75;16.23;;;29.10;99.90;;;;;;5073318;28;20426;-62
2022/03/07 11:18:16;;;;;;;30.27;18.25;;;29.20;99.90;;;;;;5073714;28;20032;-62
2022/03/07 11:20:45;;;;;;;31.35;18.67;;;29.20;99.90;;;;;;5069230;28;20025;-62
2022/03/07 11:23:13;;;;;;;31.55;17.80;;;29.10;99.90;;;;;;5053514;28;20540;-62
2022/03/07 11:25:40;;;;;;;44.30;26.70;;;29.20;99.90;;;;;;5057414;28;20477;-63
2022/03/07 11:28:08;;;;;;;47.83;27.83;;;29.20;99.90;;;;;;5063228;28;20028;-62
2022/03/07 11:30:39;;;;;;;43.75;24.95;;;29.10;99.90;;;;;;5064348;28;20033;-62
2022/03/07 11:33:11;;;;;;;65.88;35.22;;;29.10;99.90;;;;;;5063700;28;20500;-62
2022/03/07 11:35:41;;;;;;;;;;;29.10;99.90;;;;;;5060400;28;20044;-62
2022/03/07 11:38:14;;;;;;;68.97;38.85;;;29.10;99.90;;;;;;5062859;28;19913;-62
2022/03/07 11:40:56;;;;;;;67.50;35.55;;;29.10;99.90;;;;;;5061325;28;20025;-62
2022/03/07 11:43:24;;;;;;;48.53;29.00;;;29.10;99.90;;;;;;5071400;28;20017;-62
2022/03/07 11:45:52;;;;;;;43.63;25.73;;;29.00;99.90;;;;;;5058998;28;20029;-62
2022/03/07 11:48:19;;;;;;;45.13;23.20;;;29.00;99.90;;;;;;5073367;28;20028;-63
2022/03/07 11:50:47;;;;;;;41.88;23.48;;;28.90;99.90;;;;;;5067391;28;20537;-64
2022/03/07 11:53:19;;;;;;;39.00;21.50;;;28.80;99.90;;;;;;5062172;28;20110;-64
2022/03/07 11:55:52;;;;;;;36.33;20.40;;;28.70;99.90;;;;;;5062275;28;20168;-64
2022/03/07 11:58:35;;;;;;;32.63;20.27;;;28.80;99.90;;;;;;5062544;28;20029;-63
2022/03/07 12:01:04;;;;;;;;;;;28.90;99.90;;;;;;5063310;28;20020;-63
2022/03/07 12:03:34;;;;;;;28.25;17.17;;;28.80;99.90;;;;;;5061153;28;20000;-63
2022/03/07 12:06:07;;;;;;;31.13;17.42;;;28.70;99.90;;;;;;5064802;28;20104;-64
2022/03/07 12:08:48;;;;;;;30.45;19.13;;;28.70;99.90;;;;;;5068009;28;20063;-62
2022/03/07 12:11:27;;;;;;;29.73;17.63;;;28.80;99.90;;;;;;5075959;28;20040;-61
2022/03/07 12:13:57;;;;;;;27.77;16.15;;;28.90;99.90;;;;;;5069004;28;20076;-62
2022/03/07 12:16:25;;;;;;;29.42;16.52;;;28.80;99.90;;;;;;5073878;28;20362;-61
2022/03/07 12:19:05;;;;;;;24.58;16.90;;;28.60;99.90;;;;;;5071600;28;20028;-62
2022/03/07 12:21:32;;;;;;;24.73;15.63;;;28.50;99.90;;;;;;5057115;28;20113;-61
2022/03/07 12:24:00;;;;;;;34.17;16.98;;;28.70;99.90;;;;;;5057109;28;20017;-62
2022/03/07 12:26:26;;;;;;;33.47;17.80;;;28.80;99.90;;;;;;5057232;28;20025;-61
2022/03/07 12:28:53;;;;;;;35.47;18.15;;;28.70;99.90;;;;;;5057359;28;20477;-61
2022/03/07 12:31:20;;;;;;;32.08;16.65;;;28.70;99.90;;;;;;5070002;28;20047;-61